ASA65 PAPG-PAWG
Flight info
| Callsign | ASA65 |
|---|---|
| Flight time | 0h 7m |
| Altitude | 7000 |
| Route | RAKLY1 RAKLY |
| Aircraft | B737/M-SDE2E3FGHIRWXY/LB1 |
Departure
| Time | 2026-04-28 20:54 |
|---|---|
| Airport | Petersburg James A Johnson Airport (PAPG) |
Arrival
| Time | 2026-04-28 21:02 |
|---|---|
| Airport | Wrangell Airport (PAWG) |
| Time | Latitude | Longitude | Altitude | Speed | Heading |
|---|---|---|---|---|---|
| 2026-04-28 20:38 | 56.80570 | -132.93457 | 121 ft | 0 kts | 340° |
| 2026-04-28 20:46 | 56.80559 | -132.93450 | 118 ft | 4 kts | 335° |
| 2026-04-28 20:46 | 56.80539 | -132.93424 | 121 ft | 4 kts | 296° |
| 2026-04-28 20:46 | 56.80535 | -132.93404 | 121 ft | 2 kts | 200° |
| 2026-04-28 20:46 | 56.80541 | -132.93400 | 118 ft | 0 kts | 198° |
| 2026-04-28 20:49 | 56.80528 | -132.93407 | 119 ft | 5 kts | 198° |
| 2026-04-28 20:49 | 56.80484 | -132.93403 | 119 ft | 7 kts | 159° |
| 2026-04-28 20:49 | 56.80439 | -132.93371 | 117 ft | 7 kts | 159° |
| 2026-04-28 20:49 | 56.80392 | -132.93396 | 120 ft | 10 kts | 225° |
| 2026-04-28 20:50 | 56.80346 | -132.93579 | 119 ft | 21 kts | 251° |
| 2026-04-28 20:50 | 56.80295 | -132.93851 | 120 ft | 24 kts | 251° |
| 2026-04-28 20:50 | 56.80242 | -132.94125 | 120 ft | 23 kts | 251° |
| 2026-04-28 20:50 | 56.80191 | -132.94392 | 121 ft | 22 kts | 251° |
| 2026-04-28 20:51 | 56.80138 | -132.94671 | 119 ft | 28 kts | 250° |
| 2026-04-28 20:51 | 56.80070 | -132.95021 | 117 ft | 29 kts | 251° |
| 2026-04-28 20:51 | 56.80006 | -132.95358 | 123 ft | 27 kts | 251° |
| 2026-04-28 20:51 | 56.79966 | -132.95570 | 122 ft | 26 kts | 251° |
| 2026-04-28 20:52 | 56.79892 | -132.95963 | 122 ft | 22 kts | 252° |
| 2026-04-28 20:52 | 56.79875 | -132.96128 | 120 ft | 5 kts | 210° |
| 2026-04-28 20:52 | 56.79861 | -132.96112 | 118 ft | 2 kts | 112° |
| 2026-04-28 20:52 | 56.79865 | -132.96094 | 117 ft | 0 kts | 63° |
| 2026-04-28 20:53 | 56.79866 | -132.96088 | 121 ft | 6 kts | 64° |
| 2026-04-28 20:53 | 56.79980 | -132.95501 | 124 ft | 94 kts | 70° |
| 2026-04-28 20:54 | 56.80282 | -132.93940 | 271 ft | 154 kts | 70° |
| 2026-04-28 20:54 | 56.80645 | -132.92077 | 1244 ft | 158 kts | 71° |
| 2026-04-28 20:54 | 56.81006 | -132.90208 | 2314 ft | 158 kts | 71° |
| 2026-04-28 20:54 | 56.81410 | -132.88233 | 3121 ft | 179 kts | 73° |
| 2026-04-28 20:55 | 56.81519 | -132.85774 | 3599 ft | 212 kts | 102° |
| 2026-04-28 20:55 | 56.80886 | -132.83229 | 4184 ft | 233 kts | 127° |
| 2026-04-28 20:55 | 56.79880 | -132.80702 | 4664 ft | 264 kts | 124° |
| 2026-04-28 20:55 | 56.78866 | -132.77850 | 4872 ft | 270 kts | 123° |
| 2026-04-28 20:56 | 56.77730 | -132.75182 | 5002 ft | 263 kts | 138° |
| 2026-04-28 20:56 | 56.76228 | -132.73187 | 5573 ft | 272 kts | 149° |
| 2026-04-28 20:56 | 56.74631 | -132.71355 | 6822 ft | 271 kts | 148° |
| 2026-04-28 20:56 | 56.73052 | -132.69415 | 6991 ft | 275 kts | 146° |
| 2026-04-28 20:57 | 56.71523 | -132.67379 | 6887 ft | 273 kts | 144° |
| 2026-04-28 20:57 | 56.70034 | -132.65284 | 6883 ft | 273 kts | 143° |
| 2026-04-28 20:57 | 56.68516 | -132.63106 | 6181 ft | 282 kts | 143° |
| 2026-04-28 20:57 | 56.66993 | -132.60926 | 5762 ft | 273 kts | 143° |
| 2026-04-28 20:58 | 56.65516 | -132.58839 | 5322 ft | 266 kts | 143° |
| 2026-04-28 20:58 | 56.64049 | -132.56804 | 4721 ft | 265 kts | 143° |
| 2026-04-28 20:58 | 56.62565 | -132.54803 | 4135 ft | 265 kts | 144° |
| 2026-04-28 20:58 | 56.61143 | -132.52842 | 3980 ft | 248 kts | 145° |
| 2026-04-28 20:59 | 56.59766 | -132.51156 | 3715 ft | 238 kts | 149° |
| 2026-04-28 20:59 | 56.58394 | -132.49606 | 3486 ft | 226 kts | 146° |
| 2026-04-28 20:59 | 56.57148 | -132.47958 | 3193 ft | 219 kts | 142° |
| 2026-04-28 20:59 | 56.55946 | -132.46270 | 2902 ft | 215 kts | 142° |
| 2026-04-28 21:00 | 56.54797 | -132.44668 | 2680 ft | 204 kts | 143° |
| 2026-04-28 21:00 | 56.53611 | -132.43307 | 2170 ft | 199 kts | 157° |
| 2026-04-28 21:00 | 56.52317 | -132.42627 | 1691 ft | 191 kts | 167° |
| 2026-04-28 21:00 | 56.51027 | -132.42075 | 1078 ft | 189 kts | 167° |
| 2026-04-28 21:01 | 56.49827 | -132.41243 | 563 ft | 181 kts | 137° |
| 2026-04-28 21:01 | 56.49226 | -132.39443 | 303 ft | 155 kts | 114° |
| 2026-04-28 21:01 | 56.48714 | -132.37827 | 34 ft | 138 kts | 121° |
| 2026-04-28 21:01 | 56.48298 | -132.36596 | 27 ft | 84 kts | 121° |
| 2026-04-28 21:02 | 56.48094 | -132.35993 | 24 ft | 30 kts | 121° |
| 2026-04-28 21:02 | 56.48009 | -132.35849 | 27 ft | 10 kts | 108° |
| 2026-04-28 21:02 | 56.48049 | -132.35851 | 30 ft | 9 kts | 297° |
| 2026-04-28 21:02 | 56.48084 | -132.35968 | 30 ft | 15 kts | 301° |
| 2026-04-28 21:03 | 56.48147 | -132.36154 | 29 ft | 18 kts | 301° |
| 2026-04-28 21:03 | 56.48212 | -132.36344 | 28 ft | 18 kts | 302° |
| 2026-04-28 21:03 | 56.48291 | -132.36576 | 27 ft | 23 kts | 302° |
| 2026-04-28 21:03 | 56.48374 | -132.36825 | 28 ft | 23 kts | 301° |
| 2026-04-28 21:04 | 56.48454 | -132.37068 | 28 ft | 22 kts | 302° |
| 2026-04-28 21:04 | 56.48530 | -132.37294 | 27 ft | 14 kts | 292° |
| 2026-04-28 21:04 | 56.48511 | -132.37452 | 27 ft | 13 kts | 252° |
| 2026-04-28 21:04 | 56.48509 | -132.37612 | 28 ft | 13 kts | 270° |
| 2026-04-28 21:05 | 56.48514 | -132.37767 | 28 ft | 12 kts | 285° |
| 2026-04-28 21:05 | 56.48534 | -132.37901 | 28 ft | 9 kts | 284° |
| 2026-04-28 21:05 | 56.48538 | -132.37924 | 28 ft | 0 kts | 284° |